Darstellungsparameter: Aktuell verwendete Einstellungen:
Skalierung der Graphiken ... ?
xyx+y,   Skalierungsfaktor:      Skalierung: Modus: x, Faktor: 1
Darstellungszeitraum ... ?
Vom - - bis: - -   Zeitraum: 23.02.2003 - 02.03.2003
Min/Max/Avg-Anzeige ... ?
Zeige MMA aktuell
Zeige MMA Monat
Zeige MMA alles
Zeige --A aktuell
Zeige --A Monat
Zeige --A alles
Keine MMA-Anzeige
MMA:
Average (ber die Originaldaten)
MMA-Basis: 23.02.2003 - 02.03.2003
Quicknavigation für Darstellung... ?
Tage:      1T, 2T, 3T, 5T -1T -2T -3T -5T +1T +2T +3T +5T
Wochen: 1W, 2W, 3W -1W -2W -3W +1W +2W +3W
Monate: 1M, 3M, 6M -1M -3M -6M +1M +3M +6M
Jahre:    1J, 3J, 5J, 10J -1J -3J -5J -10J +1J +3J +5J +10J
Nutze für die Darstellung ... ?
Originaldaten oder ...
Mittelwerte Minima Maxima auf...
Stundenbasis Tagesbasis Wochenbasis
Monatsbasis Jahresbasis      Datenbasis: Mittelwerte auf Stundenbasis
Darstellen als:
Statistik (Auto) Statistik J:M      Darstellung:
Zur Graphik,    zurück zur Übersicht aller Sensoren.
 
Tabellarische Datenbersicht: ?
 
Sensor: Nr:Datum:Temp:Abs-Feuchte:Windchill:Wind:
Aussen-T/F 1 23-02-2003 23:00:00 -0.25 C 3.51 g/m*3 -0.25 C 0 km/h
2 24-02-2003 00:00:00 -0.95 C 3.44 g/m*3 -0.95 C 0 km/h
3 24-02-2003 01:00:00 -1.71667 C 3.31 g/m*3 -1.72 C 0 km/h
4 24-02-2003 02:00:00 -1.98333 C 3.32 g/m*3 -1.98 C 0 km/h
5 24-02-2003 03:00:00 -2.71667 C 3.14 g/m*3 -2.72 C 0 km/h
6 24-02-2003 04:00:00 -2.93333 C 3.13 g/m*3 -2.93 C 0 km/h
7 24-02-2003 05:00:00 -3.33333 C 3.05 g/m*3 -3.33 C 0 km/h
8 24-02-2003 06:00:00 -3.65 C 2.99 g/m*3 -3.65 C 0 km/h
9 24-02-2003 07:00:00 -3.85 C 2.96 g/m*3 -3.85 C 0 km/h
10 24-02-2003 08:00:00 -3.7 C 2.99 g/m*3 -3.7 C 0 km/h
11 24-02-2003 09:00:00 -2.86667 C 3.17 g/m*3 -2.87 C 0 km/h
12 24-02-2003 10:00:00 -0.91667 C 3.71 g/m*3 -0.92 C 0 km/h
13 24-02-2003 11:00:00 2.46 C 4.21 g/m*3 2.46 C 0 km/h
14 24-02-2003 12:00:00 5.76667 C 4.12 g/m*3 5.77 C 0 km/h
15 24-02-2003 13:00:00 8.55 C 4.08 g/m*3 8.55 C 0 km/h
16 24-02-2003 14:00:00 12.3 C 3.77 g/m*3 12.3 C 0 km/h
17 24-02-2003 15:00:00 14.13 C 3.59 g/m*3 14.13 C 0 km/h
18 24-02-2003 16:00:00 13.41 C 3.78 g/m*3 13.41 C 0 km/h
19 24-02-2003 17:00:00 10.4 C 3.77 g/m*3 10.4 C 0 km/h
20 24-02-2003 18:00:00 6.19 C 3.62 g/m*3 6.19 C 0 km/h
21 24-02-2003 19:00:00 4.27 C 3.65 g/m*3 4.27 C 0 km/h
22 24-02-2003 20:00:00 2.61 C 3.57 g/m*3 2.61 C 0 km/h
23 24-02-2003 21:00:00 1.3 C 3.48 g/m*3 1.3 C 0 km/h
24 24-02-2003 22:00:00 0.43 C 3.42 g/m*3 0.43 C 0 km/h
25 24-02-2003 23:00:00 -0.86 C 3.28 g/m*3 -0.86 C 0 km/h
Sensor: Nr:Datum:Temp:Abs-Feuchte:Windchill:Wind:
Aussen-T/F 26 25-02-2003 00:00:00 -1.33 C 3.24 g/m*3 -1.33 C 0 km/h
27 25-02-2003 01:00:00 -2.07 C 3.11 g/m*3 -2.07 C 0 km/h
28 25-02-2003 02:00:00 -2.54 C 3.06 g/m*3 -2.54 C 0 km/h
29 25-02-2003 03:00:00 -3.02 C 2.97 g/m*3 -3.02 C 0 km/h
30 25-02-2003 04:00:00 -3.53 C 2.88 g/m*3 -3.53 C 0 km/h
31 25-02-2003 05:00:00 -4.48 C 2.7 g/m*3 -4.48 C 0 km/h
32 25-02-2003 06:00:00 -4.94 C 2.63 g/m*3 -4.94 C 0 km/h
33 25-02-2003 07:00:00 -5.41 C 2.55 g/m*3 -5.41 C 0 km/h
34 25-02-2003 08:00:00 -5.04 C 2.62 g/m*3 -5.04 C 0 km/h
35 25-02-2003 09:00:00 -4.31 C 2.78 g/m*3 -4.31 C 0 km/h
36 25-02-2003 10:00:00 -1.59 C 3.46 g/m*3 -1.59 C 0 km/h
37 25-02-2003 11:00:00 1.8 C 3.79 g/m*3 1.8 C 0 km/h
38 25-02-2003 12:00:00 5.64 C 3.12 g/m*3 5.64 C 0 km/h
39 25-02-2003 13:00:00 8.66 C 2.97 g/m*3 8.66 C 0 km/h
40 25-02-2003 14:00:00 11.02222 C 3.01 g/m*3 11.02 C 0 km/h
41 25-02-2003 15:00:00 12.49 C 3.16 g/m*3 12.49 C 0 km/h
42 25-02-2003 16:00:00 12.08 C 3.19 g/m*3 12.08 C 0 km/h
43 25-02-2003 17:00:00 8.96 C 3.23 g/m*3 8.96 C 0 km/h
44 25-02-2003 18:00:00 5.04 C 3.2 g/m*3 5.04 C 0 km/h
45 25-02-2003 19:00:00 3.04 C 3.24 g/m*3 3.04 C 0 km/h
46 25-02-2003 20:00:00 1.69 C 3.15 g/m*3 1.69 C 0 km/h
47 25-02-2003 21:00:00 0.28 C 3.13 g/m*3 0.28 C 0 km/h
48 25-02-2003 22:00:00 -0.59 C 3.06 g/m*3 -0.59 C 0 km/h
49 25-02-2003 23:00:00 -1.39 C 2.92 g/m*3 -1.39 C 0 km/h
50 26-02-2003 00:00:00 -2.24 C 2.82 g/m*3 -2.24 C 0 km/h
Sensor: Nr:Datum:Temp:Abs-Feuchte:Windchill:Wind:
Aussen-T/F 51 26-02-2003 01:00:00 -2.81 C 2.81 g/m*3 -2.81 C 0 km/h
52 26-02-2003 02:00:00 -3.2 C 2.74 g/m*3 -3.2 C 0 km/h
53 26-02-2003 03:00:00 -3.72 C 2.7 g/m*3 -3.72 C 0 km/h
54 26-02-2003 04:00:00 -3.8 C 2.68 g/m*3 -3.8 C 0 km/h
55 26-02-2003 05:00:00 -4.13 C 2.65 g/m*3 -4.13 C 0 km/h
56 26-02-2003 06:00:00 -4.26 C 2.64 g/m*3 -4.26 C 0 km/h
57 26-02-2003 07:00:00 -4.68 C 2.6 g/m*3 -4.68 C 0 km/h
58 26-02-2003 08:00:00 -4.08 C 2.74 g/m*3 -4.08 C 0 km/h
59 26-02-2003 09:00:00 -1.83 C 2.95 g/m*3 -1.83 C 0 km/h
60 26-02-2003 10:00:00 -0.06 C 3.15 g/m*3 -0.06 C 0 km/h
61 26-02-2003 11:00:00 0.96 C 3.24 g/m*3 0.96 C 0 km/h
62 26-02-2003 12:00:00 2.51 C 3.43 g/m*3 2.51 C 0 km/h
63 26-02-2003 13:00:00 4.67 C 3.48 g/m*3 4.67 C 0 km/h
64 26-02-2003 14:00:00 6.39474 C 3.63 g/m*3 6.39 C 0 km/h
65 26-02-2003 15:00:00 7.65 C 3.6 g/m*3 7.65 C 0 km/h
66 26-02-2003 16:00:00 8.00556 C 3.67 g/m*3 8.01 C 0 km/h
67 26-02-2003 17:00:00 7.47 C 3.75 g/m*3 7.47 C 0 km/h
68 26-02-2003 18:00:00 5.38 C 3.7 g/m*3 5.38 C 0 km/h
69 26-02-2003 19:00:00 4.025 C 3.67 g/m*3 4.03 C 0 km/h
70 26-02-2003 20:00:00 2.655 C 3.6 g/m*3 2.66 C 0 km/h
71 26-02-2003 21:00:00 2.3 C 3.63 g/m*3 2.3 C 0 km/h
72 26-02-2003 22:00:00 2.34 C 3.67 g/m*3 2.34 C 0 km/h
73 26-02-2003 23:00:00 2.045 C 3.67 g/m*3 2.05 C 0 km/h
74 27-02-2003 00:00:00 1.7 C 3.69 g/m*3 1.7 C 0 km/h
75 27-02-2003 01:00:00 1.705 C 3.72 g/m*3 1.71 C 0 km/h
Sensor: Nr:Datum:Temp:Abs-Feuchte:Windchill:Wind:
Aussen-T/F 76 27-02-2003 02:00:00 1.255 C 3.67 g/m*3 1.25 C 0 km/h
77 27-02-2003 03:00:00 0.96 C 3.67 g/m*3 0.96 C 0 km/h
78 27-02-2003 04:00:00 0.53 C 3.64 g/m*3 0.53 C 0 km/h
79 27-02-2003 05:00:00 0.145 C 3.63 g/m*3 0.14 C 0 km/h
80 27-02-2003 06:00:00 -0.265 C 3.63 g/m*3 -0.27 C 0 km/h
81 27-02-2003 07:00:00 -0.4 C 3.59 g/m*3 -0.4 C 0 km/h
82 27-02-2003 08:00:00 0.21 C 3.7 g/m*3 0.21 C 0 km/h
83 27-02-2003 09:00:00 1.06 C 3.83 g/m*3 1.06 C 0 km/h
84 27-02-2003 10:00:00 3.77 C 3.97 g/m*3 3.77 C 0 km/h
85 27-02-2003 11:00:00 6.445 C 4.03 g/m*3 6.45 C 0 km/h
86 27-02-2003 12:00:00 9.845 C 4.12 g/m*3 9.85 C 0 km/h
87 27-02-2003 13:00:00 12.875 C 4.29 g/m*3 12.88 C 0 km/h
88 27-02-2003 14:00:00 16.46 C 4.24 g/m*3 16.46 C 0 km/h
89 27-02-2003 15:00:00 17.77 C 4.52 g/m*3 17.77 C 0 km/h
90 27-02-2003 16:00:00 15.775 C 4.62 g/m*3 15.78 C 0 km/h
91 27-02-2003 17:00:00 12.91176 C 4.89 g/m*3 12.91 C 0 km/h
92 27-02-2003 18:00:00 11.09 C 4.92 g/m*3 11.09 C 0 km/h
93 27-02-2003 19:00:00 9.34 C 4.93 g/m*3 9.34 C 0 km/h
94 27-02-2003 20:00:00 7.74 C 4.88 g/m*3 7.74 C 0 km/h
95 27-02-2003 21:00:00 5.71 C 4.84 g/m*3 5.71 C 0 km/h
96 27-02-2003 22:00:00 4.64 C 4.79 g/m*3 4.64 C 0 km/h
97 27-02-2003 23:00:00 4.35 C 4.74 g/m*3 4.35 C 0 km/h
98 28-02-2003 00:00:00 3.84 C 4.66 g/m*3 3.84 C 0 km/h
99 28-02-2003 01:00:00 3.69 C 4.7 g/m*3 3.69 C 0 km/h
100 28-02-2003 02:00:00 3.74 C 4.67 g/m*3 3.74 C 0 km/h
Sensor: Nr:Datum:Temp:Abs-Feuchte:Windchill:Wind:
Aussen-T/F 101 28-02-2003 03:00:00 3.37 C 4.66 g/m*3 3.37 C 0 km/h
102 28-02-2003 04:00:00 3.18 C 4.63 g/m*3 3.18 C 0 km/h
103 28-02-2003 05:00:00 3.47 C 4.67 g/m*3 3.47 C 0 km/h
104 28-02-2003 06:00:00 3.48 C 4.67 g/m*3 3.48 C 0 km/h
105 28-02-2003 07:00:00 3.45 C 4.71 g/m*3 3.45 C 0 km/h
106 28-02-2003 08:00:00 3.89 C 4.76 g/m*3 3.89 C 0 km/h
107 28-02-2003 09:00:00 4.56 C 4.84 g/m*3 4.56 C 0 km/h
108 28-02-2003 10:00:00 5.95 C 4.96 g/m*3 5.95 C 0 km/h
109 28-02-2003 11:00:00 7.86 C 5.01 g/m*3 7.86 C 0 km/h
110 28-02-2003 12:00:00 10.37 C 5.41 g/m*3 10.37 C 0 km/h
111 28-02-2003 13:00:00 12.19 C 5.94 g/m*3 12.19 C 0 km/h
112 28-02-2003 14:00:00 12.99 C 6.19 g/m*3 12.99 C 0 km/h
113 28-02-2003 15:00:00 13.46 C 6.32 g/m*3 13.46 C 0 km/h
114 28-02-2003 16:00:00 13.42 C 6.38 g/m*3 13.42 C 0 km/h
115 28-02-2003 17:00:00 12.04 C 6.3 g/m*3 12.04 C 0 km/h
116 28-02-2003 18:00:00 10.18 C 6.08 g/m*3 10.18 C 0 km/h
117 28-02-2003 19:00:00 8.95556 C 5.95 g/m*3 8.96 C 0 km/h
118 28-02-2003 20:00:00 7.44 C 5.81 g/m*3 7.44 C 0 km/h
119 28-02-2003 21:00:00 6.23 C 5.67 g/m*3 6.23 C 0 km/h
120 28-02-2003 22:00:00 5.43 C 5.68 g/m*3 5.43 C 0 km/h
121 28-02-2003 23:00:00 5.33 C 5.66 g/m*3 5.33 C 0 km/h
122 01-03-2003 00:00:00 4.71 C 5.53 g/m*3 4.71 C 0 km/h
123 01-03-2003 01:00:00 4.27 C 5.37 g/m*3 4.27 C 0 km/h
124 01-03-2003 02:00:00 4.54286 C 5.45 g/m*3 4.54 C 0 km/h
125 01-03-2003 03:00:00 4.41 C 5.69 g/m*3 4.41 C 0 km/h
Sensor: Nr:Datum:Temp:Abs-Feuchte:Windchill:Wind:
Aussen-T/F 126 01-03-2003 04:00:00 4.48 C 5.97 g/m*3 4.48 C 0 km/h
127 01-03-2003 05:00:00 4.48 C 6.04 g/m*3 4.48 C 0 km/h
128 01-03-2003 06:00:00 5.11 C 6.32 g/m*3 5.11 C 0 km/h
129 01-03-2003 07:00:00 7.16 C 6.98 g/m*3 7.16 C 0 km/h
130 01-03-2003 08:00:00 8.03 C 6.91 g/m*3 8.03 C 0 km/h
131 01-03-2003 09:00:00 8.13 C 7.03 g/m*3 8.13 C 0 km/h
132 01-03-2003 10:00:00 8.89 C 7.07 g/m*3 8.89 C 0 km/h
133 01-03-2003 11:00:00 9.42 C 7.04 g/m*3 9.42 C 0 km/h
134 01-03-2003 12:00:00 9.86 C 6.98 g/m*3 9.86 C 0 km/h
135 01-03-2003 13:00:00 10.07 C 6.9 g/m*3 10.07 C 0 km/h
136 01-03-2003 14:00:00 10.91 C 7.02 g/m*3 10.91 C 0 km/h
137 01-03-2003 15:00:00 11.74 C 7.09 g/m*3 11.74 C 0 km/h
138 01-03-2003 16:00:00 11.38 C 6.92 g/m*3 11.38 C 0 km/h
139 01-03-2003 17:00:00 10.66 C 6.92 g/m*3 10.66 C 0 km/h
140 01-03-2003 18:00:00 9.83 C 6.85 g/m*3 9.83 C 0 km/h
141 01-03-2003 19:00:00 9.45 C 6.88 g/m*3 9.45 C 0 km/h
142 01-03-2003 20:00:00 9.25556 C 6.86 g/m*3 9.26 C 0 km/h
143 01-03-2003 21:00:00 8.78 C 7 g/m*3 8.78 C 0 km/h
144 01-03-2003 22:00:00 8.35 C 7.18 g/m*3 8.35 C 0 km/h
145 01-03-2003 23:00:00 8.17 C 7.32 g/m*3 8.17 C 0 km/h

Maximal/Minimal-Werte vom 23.02.2003 - 02.03.2003

Sensor Min Max Avg
Temp
(Aussen-T/F)
-5.5 °C
25-02-2003  07:21:09
18.2 °C
27-02-2003  15:53:10
5.27 °C
Abs-Feuchte
(Aussen-T/F)
2.55 g/m*3
25-02-2003  07:00:00
7.32 g/m*3
01-03-2003  23:00:00
4.29 g/m*3
Windchill
(Aussen-T/F)
-5.41 C
25-02-2003  07:00:00
17.77 C
27-02-2003  15:00:00
4.18 C

Die Daten stammen von einer Davis Vantage Pro 2 Wetter-Station und werden unter Linux mit der Software wview2wettercgi und aufbereitet. Alle Angaben erfolgen ohne Gewähr für ihre Vollständigkeit oder Richtigkeit.
Kontakt: Rainer Krienke krienke@uni-koblenz.de . Meine Webseiten an der Uni Koblenz oder privat.
Version: $Revision: 0.78 $